createdAt,value
2022-08-09T00:05:03.643Z,83.12
2022-08-09T00:15:14.618Z,83.46
2022-08-09T00:25:23.195Z,83.48
2022-08-09T00:35:43.430Z,83.69
2022-08-09T00:45:53.736Z,84.81
2022-08-09T00:56:03.856Z,84.86
2022-08-09T01:06:17.773Z,85.32
2022-08-09T01:16:25.647Z,84.67
2022-08-09T01:26:56.550Z,86.16
2022-08-09T01:37:04.296Z,86.47
2022-08-09T01:47:12.538Z,85.63
2022-08-09T01:57:24.506Z,86.39
2022-08-09T02:08:39.996Z,85.63
2022-08-09T02:18:01.067Z,85.97
2022-08-09T02:28:19.985Z,86.00
2022-08-09T02:38:28.866Z,85.43
2022-08-09T02:48:46.194Z,86.52
2022-08-09T02:58:51.070Z,84.57
2022-08-09T03:08:56.983Z,84.89
2022-08-09T03:19:02.364Z,81.44
2022-08-09T03:29:09.667Z,80.34
2022-08-09T03:39:16.688Z,77.61
2022-08-09T03:49:24.061Z,78.72
2022-08-09T04:09:53.758Z,80.98
2022-08-09T04:19:57.365Z,81.11
2022-08-09T04:30:02.723Z,83.27
2022-08-09T04:40:08.322Z,83.78
2022-08-09T04:50:15.505Z,83.91
2022-08-09T05:00:26.359Z,81.06
2022-08-09T05:10:40.103Z,82.16
2022-08-09T05:20:51.784Z,82.79
2022-08-09T05:30:58.076Z,82.07
2022-08-09T05:41:01.445Z,80.57
2022-08-09T05:51:30.363Z,80.87
2022-08-09T06:01:33.547Z,80.55
2022-08-09T06:11:41.111Z,81.42
2022-08-09T06:22:00.338Z,80.43
2022-08-09T06:32:36.215Z,78.91
2022-08-09T06:42:30.778Z,78.83
2022-08-09T06:52:40.686Z,77.71
2022-08-09T07:02:46.266Z,78.13
2022-08-09T07:12:57.746Z,75.61
2022-08-09T07:23:01.717Z,75.69
2022-08-09T07:33:12.360Z,76.45
2022-08-09T07:43:20.241Z,78.40
2022-08-09T07:53:45.146Z,79.57
2022-08-09T08:03:58.861Z,76.38
2022-08-09T08:14:06.231Z,73.29
2022-08-09T08:24:11.875Z,72.44
2022-08-09T08:34:21.265Z,73.09
2022-08-09T08:44:29.808Z,73.74
2022-08-09T08:54:35.524Z,72.57
2022-08-09T09:04:47.817Z,71.10
2022-08-09T09:15:12.343Z,73.77
2022-08-09T09:26:00.515Z,74.46
2022-08-09T09:36:02.707Z,73.62
2022-08-09T09:56:34.368Z,72.43
2022-08-09T10:06:42.954Z,73.23
2022-08-09T10:16:56.563Z,73.86
2022-08-09T10:27:05.442Z,73.11
2022-08-09T10:37:22.426Z,73.59
2022-08-09T10:48:20.333Z,73.63
2022-08-09T10:58:05.822Z,73.17
2022-08-09T11:08:47.748Z,74.01
2022-08-09T11:18:57.916Z,70.80
2022-08-09T11:29:04.766Z,67.83
2022-08-09T11:39:11.651Z,65.30
2022-08-09T11:49:27.864Z,63.72
2022-08-09T11:59:53.890Z,64.10
2022-08-09T12:10:03.641Z,66.28
2022-08-09T12:20:16.825Z,67.52
2022-08-09T12:30:36.946Z,68.04
2022-08-09T12:40:51.854Z,69.04
2022-08-09T12:51:06.396Z,68.60
2022-08-09T13:01:28.987Z,68.91
2022-08-09T13:11:39.139Z,71.32
2022-08-09T13:22:35.712Z,73.10
2022-08-09T13:32:17.842Z,73.60
2022-08-09T13:42:28.229Z,74.75
2022-08-09T13:52:44.543Z,75.03
2022-08-09T14:03:04.298Z,76.27
2022-08-09T14:14:15.153Z,76.29
2022-08-09T14:23:54.277Z,77.45
2022-08-09T14:34:31.443Z,78.16
2022-08-09T14:44:59.861Z,79.29
2022-08-09T14:55:08.225Z,80.53
2022-08-09T15:05:17.336Z,81.06
2022-08-09T15:15:39.797Z,82.31
2022-08-09T15:26:30.821Z,82.14
2022-08-09T15:37:56.722Z,81.53
2022-08-09T15:58:43.274Z,82.03
2022-08-09T16:08:49.833Z,82.50
2022-08-09T16:18:58.152Z,82.72
2022-08-09T16:29:16.521Z,82.96
2022-08-09T16:39:54.476Z,80.94
2022-08-09T16:50:29.898Z,82.05
2022-08-09T17:00:42.873Z,82.51
2022-08-09T17:10:57.215Z,82.23
2022-08-09T17:21:01.402Z,81.99
2022-08-09T17:31:09.470Z,82.92
2022-08-09T17:41:21.401Z,82.93
2022-08-09T17:51:36.008Z,83.18
2022-08-09T18:02:07.367Z,83.02
2022-08-09T18:12:17.081Z,83.32
2022-08-09T18:22:27.299Z,83.74
2022-08-09T18:32:39.336Z,84.22
2022-08-09T18:42:58.461Z,83.81
2022-08-09T18:53:05.332Z,83.27
2022-08-09T19:03:54.687Z,83.95
2022-08-09T19:14:11.671Z,84.19
2022-08-09T19:24:33.432Z,85.83
2022-08-09T19:34:49.645Z,86.22
2022-08-09T19:44:57.337Z,87.45
2022-08-09T19:55:02.544Z,87.58
2022-08-09T20:05:11.594Z,87.97
2022-08-09T20:16:37.863Z,87.44
2022-08-09T20:25:52.305Z,87.61
2022-08-09T20:35:58.107Z,88.56
2022-08-09T20:46:34.104Z,89.00
2022-08-09T20:56:26.856Z,88.81
2022-08-09T21:06:35.076Z,90.51
2022-08-09T21:16:40.771Z,90.39
2022-08-09T21:26:45.069Z,90.47
2022-08-09T21:36:55.584Z,91.42
2022-08-09T21:46:59.407Z,91.51
2022-08-09T21:57:04.517Z,91.58
2022-08-09T22:07:12.443Z,92.74
2022-08-09T22:17:31.933Z,92.40
2022-08-09T22:27:36.268Z,92.36
2022-08-09T22:37:42.072Z,92.53
2022-08-09T22:48:18.264Z,93.42
2022-08-09T22:58:10.526Z,93.76
2022-08-09T23:08:45.917Z,94.13
2022-08-09T23:18:51.136Z,93.13
2022-08-09T23:28:54.797Z,91.93
2022-08-09T23:38:59.792Z,91.82
2022-08-09T23:49:03.402Z,92.08
2022-08-09T23:59:11.550Z,92.34
